Bay Village, Ohio
Current Conditions -  °F | °C
As of 5:51 AM on Tuesday 21 Oct 2014 (Local Time) from KCLE Reporting Station
Overcast Overcast  
Wind Chill: 51°   Ceiling: 1500
Heat Index: 51°   Visibility: 9mi
Dew Point: 48°   Wind: 9mph
Humidity: 89%   Direction: 320°NW
Pressure: 29.88"   Gusts: NA
Location:  41.48°N, 81.92°W
Report Text: KCLE 210951Z 32008KT 9SM SCT009 BKN015 OVC031 11/09 A2988 RMK AO2 RAE51 SLP120 P0001 T01060089 $
Loading
Personal Weather Stations






























Interactive Weather Map
Tropical Storm Tracking
New forecast layout! Learn more

10-Day Weather Forecast

Advertisements
Track Severe Weather on mobile